createdAt,value
2018-05-09T00:05:13.080Z,14.7
2018-05-09T00:10:43.354Z,14.6
2018-05-09T00:16:12.609Z,14.6
2018-05-09T00:21:41.862Z,14.6
2018-05-09T00:27:12.410Z,14.6
2018-05-09T00:32:41.474Z,14.5
2018-05-09T00:38:10.677Z,14.5
2018-05-09T00:43:39.970Z,14.5
2018-05-09T00:49:09.452Z,14.5
2018-05-09T00:54:38.499Z,14.4
2018-05-09T01:00:07.920Z,14.3
2018-05-09T01:05:38.174Z,14.2
2018-05-09T01:11:07.279Z,14.1
2018-05-09T01:16:37.714Z,14.1
2018-05-09T01:22:06.852Z,14
2018-05-09T01:27:35.912Z,13.9
2018-05-09T01:33:05.182Z,13.9
2018-05-09T01:38:35.323Z,13.8
2018-05-09T01:44:05.556Z,13.7
2018-05-09T01:49:34.745Z,13.7
2018-05-09T01:55:04.995Z,13.7
2018-05-09T02:00:34.085Z,13.6
2018-05-09T02:06:04.287Z,13.5
2018-05-09T02:11:33.570Z,13.5
2018-05-09T02:17:02.653Z,13.4
2018-05-09T02:22:31.900Z,13.4
2018-05-09T02:28:01.040Z,13.3
2018-05-09T02:33:31.150Z,13.3
2018-05-09T02:39:00.572Z,13.3
2018-05-09T02:44:30.409Z,13.2
2018-05-09T02:50:00.675Z,13.2
2018-05-09T02:55:29.698Z,13.1
2018-05-09T03:00:58.838Z,13.1
2018-05-09T03:06:28.974Z,13
2018-05-09T03:11:59.379Z,13
2018-05-09T03:17:28.361Z,13
2018-05-09T03:22:57.343Z,13
2018-05-09T03:28:27.402Z,12.9
2018-05-09T03:33:56.536Z,12.9
2018-05-09T03:39:26.640Z,12.9
2018-05-09T03:44:55.805Z,12.9
2018-05-09T03:50:24.863Z,12.8
2018-05-09T03:55:55.014Z,12.8
2018-05-09T04:01:24.140Z,12.8
2018-05-09T04:06:54.472Z,12.8
2018-05-09T04:12:24.347Z,12.8
2018-05-09T04:17:53.395Z,12.8
2018-05-09T04:23:22.698Z,12.9
2018-05-09T04:28:51.745Z,13
2018-05-09T04:34:20.750Z,13
2018-05-09T04:45:20.991Z,13.1
2018-05-09T04:50:50.180Z,13.2
2018-05-09T04:56:20.848Z,13.3
2018-05-09T05:01:49.395Z,13.4
2018-05-09T05:07:19.570Z,13.5
2018-05-09T05:12:48.715Z,13.6
2018-05-09T05:18:18.921Z,13.7
2018-05-09T05:23:49.424Z,13.8
2018-05-09T05:29:19.310Z,13.9
2018-05-09T05:34:49.545Z,14.1
2018-05-09T05:40:19.788Z,14.2
2018-05-09T05:45:49.181Z,14.4
2018-05-09T05:51:19.228Z,14.6
2018-05-09T05:56:48.488Z,14.8
2018-05-09T06:02:18.764Z,14.9
2018-05-09T06:07:49.122Z,15.1
2018-05-09T06:13:18.348Z,15.3
2018-05-09T06:18:47.689Z,15.5
2018-05-09T06:24:17.136Z,15.6
2018-05-09T06:29:47.428Z,15.8
2018-05-09T06:35:17.909Z,16
2018-05-09T06:40:47.229Z,16.2
2018-05-09T06:51:48.165Z,16.6
2018-05-09T06:57:17.710Z,16.8
2018-05-09T07:02:48.287Z,17
2018-05-09T07:08:18.570Z,17.1
2018-05-09T07:13:49.171Z,17.3
2018-05-09T07:19:18.862Z,17.5
2018-05-09T07:24:49.381Z,17.8
2018-05-09T07:30:18.942Z,18
2018-05-09T07:35:49.591Z,18.2
2018-05-09T07:41:19.248Z,18.4
2018-05-09T07:46:50.008Z,18.6
2018-05-09T07:52:19.644Z,18.8
2018-05-09T07:57:50.520Z,18.9
2018-05-09T08:03:20.261Z,19.1
2018-05-09T08:08:50.809Z,19.3
2018-05-09T08:14:20.927Z,19.6
2018-05-09T08:19:51.399Z,19.8
2018-05-09T08:25:22.173Z,20
2018-05-09T08:30:51.927Z,20.2
2018-05-09T08:36:21.801Z,20.3
2018-05-09T08:41:52.696Z,20.5
2018-05-09T08:47:23.628Z,20.6
2018-05-09T08:52:54.411Z,20.8
2018-05-09T08:58:24.622Z,20.9
2018-05-09T09:03:54.296Z,21.1
2018-05-09T09:09:24.122Z,21.3
2018-05-09T09:14:55.326Z,21.4
2018-05-09T09:20:26.250Z,21.6
2018-05-09T09:25:57.094Z,21.7
2018-05-09T09:31:27.066Z,21.8
2018-05-09T09:36:58.317Z,21.9
2018-05-09T09:42:28.074Z,22
2018-05-09T09:47:58.172Z,22.2
2018-05-09T09:53:28.248Z,22.3
2018-05-09T09:58:58.277Z,22.5
2018-05-09T10:04:28.368Z,22.6
2018-05-09T10:09:59.487Z,22.7
2018-05-09T10:15:29.579Z,22.7
2018-05-09T10:21:00.671Z,22.8
2018-05-09T10:26:30.806Z,22.8
2018-05-09T10:32:01.981Z,22.9
2018-05-09T10:37:32.191Z,23
2018-05-09T10:43:02.369Z,23.1
2018-05-09T10:48:33.432Z,23.2
2018-05-09T10:54:03.896Z,23.3
2018-05-09T10:59:34.779Z,23.4
2018-05-09T11:05:06.204Z,23.4
2018-05-09T11:10:36.345Z,23.4
2018-05-09T11:16:06.541Z,23.5
2018-05-09T11:21:38.280Z,23.6
2018-05-09T11:27:08.876Z,23.7
2018-05-09T11:32:39.344Z,23.8
2018-05-09T11:38:09.365Z,23.9
2018-05-09T11:43:40.681Z,23.9
2018-05-09T11:49:11.173Z,24
2018-05-09T11:54:41.323Z,24
2018-05-09T12:00:11.821Z,24
2018-05-09T12:05:42.820Z,24.1
2018-05-09T12:11:14.184Z,24.2
2018-05-09T12:16:45.412Z,24.3
2018-05-09T12:22:16.732Z,24.3
2018-05-09T12:27:47.053Z,24.4
2018-05-09T12:33:17.376Z,24.4
2018-05-09T12:38:47.726Z,24.4
2018-05-09T12:44:19.106Z,24.4
2018-05-09T12:49:49.521Z,24.4
2018-05-09T13:00:51.261Z,24.5
2018-05-09T13:06:22.490Z,24.6
2018-05-09T13:11:52.881Z,24.7
2018-05-09T13:17:24.210Z,24.7
2018-05-09T13:22:54.585Z,24.8
2018-05-09T13:28:26.022Z,24.7
2018-05-09T13:33:57.486Z,24.7
2018-05-09T13:39:27.874Z,24.7
2018-05-09T13:44:59.129Z,24.7
2018-05-09T13:50:29.543Z,24.7
2018-05-09T13:55:59.879Z,24.7
2018-05-09T14:01:31.438Z,24.7
2018-05-09T14:07:03.292Z,24.7
2018-05-09T14:12:34.016Z,24.7
2018-05-09T14:18:04.843Z,24.6
2018-05-09T14:23:34.769Z,24.6
2018-05-09T14:29:05.154Z,24.6
2018-05-09T14:34:36.564Z,24.6
2018-05-09T14:40:08.419Z,24.6
2018-05-09T14:45:38.387Z,24.5
2018-05-09T14:51:09.696Z,24.3
2018-05-09T14:56:39.915Z,24.2
2018-05-09T15:02:11.271Z,24
2018-05-09T15:07:42.674Z,23.9
2018-05-09T15:13:12.833Z,23.9
2018-05-09T15:18:43.122Z,23.8
2018-05-09T15:24:14.464Z,23.8
2018-05-09T15:29:44.738Z,23.9
2018-05-09T15:35:16.227Z,23.8
2018-05-09T15:40:46.279Z,23.8
2018-05-09T15:46:17.642Z,23.7
2018-05-09T15:51:48.841Z,23.7
2018-05-09T15:57:20.361Z,23.6
2018-05-09T16:02:51.375Z,23.5
2018-05-09T16:08:22.794Z,23.4
2018-05-09T16:13:53.036Z,23.4
2018-05-09T16:19:23.150Z,23.2
2018-05-09T16:24:54.410Z,23.2
2018-05-09T16:35:56.008Z,23
2018-05-09T16:41:25.944Z,23
2018-05-09T16:46:56.185Z,23
2018-05-09T16:52:27.272Z,22.9
2018-05-09T16:57:57.496Z,22.8
2018-05-09T17:03:28.624Z,22.7
2018-05-09T17:08:59.772Z,22.5
2018-05-09T17:14:29.935Z,22.3
2018-05-09T17:20:01.061Z,22.1
2018-05-09T17:25:31.051Z,21.9
2018-05-09T17:31:02.303Z,21.7
2018-05-09T17:36:33.436Z,21.5
2018-05-09T17:42:03.424Z,21.3
2018-05-09T17:47:34.278Z,21.1
2018-05-09T17:53:05.120Z,20.9
2018-05-09T17:58:35.089Z,20.7
2018-05-09T18:04:06.012Z,20.5
2018-05-09T18:09:35.860Z,20.3
2018-05-09T18:15:05.738Z,20.2
2018-05-09T18:20:36.709Z,20
2018-05-09T18:26:06.492Z,19.8
2018-05-09T18:31:36.281Z,19.7
2018-05-09T18:37:06.339Z,19.5
2018-05-09T18:42:35.889Z,19.3
2018-05-09T18:48:05.676Z,19.2
2018-05-09T18:53:35.465Z,19
2018-05-09T18:59:05.130Z,18.8
2018-05-09T19:04:35.946Z,18.6
2018-05-09T19:10:05.727Z,18.4
2018-05-09T19:15:35.358Z,18.3
2018-05-09T19:21:05.060Z,18.1
2018-05-09T19:26:35.740Z,18
2018-05-09T19:32:06.404Z,18
2018-05-09T19:37:36.516Z,17.9
2018-05-09T19:43:06.764Z,17.7
2018-05-09T19:48:37.555Z,17.6
2018-05-09T19:54:07.137Z,17.5
2018-05-09T19:59:36.665Z,17.5
2018-05-09T20:05:06.307Z,17.4
2018-05-09T20:10:35.949Z,17.4
2018-05-09T20:16:05.645Z,17.3
2018-05-09T20:21:36.169Z,17.2
2018-05-09T20:27:06.821Z,17.2
2018-05-09T20:32:37.497Z,17.1
2018-05-09T20:38:08.115Z,17.1
2018-05-09T20:43:37.637Z,17
2018-05-09T20:49:07.099Z,16.9
2018-05-09T20:54:36.641Z,16.9
2018-05-09T21:00:06.295Z,16.8
2018-05-09T21:05:36.781Z,16.8
2018-05-09T21:11:07.264Z,16.7
2018-05-09T21:16:36.870Z,16.6
2018-05-09T21:22:06.311Z,16.6
2018-05-09T21:27:35.935Z,16.5
2018-05-09T21:33:06.300Z,16.5
2018-05-09T21:38:35.765Z,16.4
2018-05-09T21:44:06.288Z,16.3
2018-05-09T21:49:35.748Z,16.2
2018-05-09T21:55:05.075Z,16.1
2018-05-09T22:00:35.620Z,16.1
2018-05-09T22:06:05.920Z,16
2018-05-09T22:11:36.348Z,15.9
2018-05-09T22:17:06.741Z,15.9
2018-05-09T22:22:37.223Z,15.8
2018-05-09T22:28:06.563Z,15.8
2018-05-09T22:33:37.297Z,15.7
2018-05-09T22:39:07.337Z,15.7
2018-05-09T22:44:37.811Z,15.6
2018-05-09T22:50:07.228Z,15.6
2018-05-09T22:55:37.658Z,15.5
2018-05-09T23:01:07.930Z,15.5
2018-05-09T23:06:37.289Z,15.4
2018-05-09T23:12:07.606Z,15.4
2018-05-09T23:17:36.918Z,15.4
2018-05-09T23:23:06.322Z,15.3
2018-05-09T23:28:35.695Z,15.3
2018-05-09T23:34:05.965Z,15.2
2018-05-09T23:39:35.350Z,15.3
2018-05-09T23:45:05.689Z,15.3
2018-05-09T23:50:36.092Z,15.4
2018-05-09T23:56:05.461Z,15.5
